Time;durP1;ratioP1;P1;durP2;ratioP2;P2;SDS_P1;SDS_P2;PMS_P1;PMS_P2;Temp;Humidity;BMP_temperature;BMP_pressure;BME280_temperature;BME280_humidity;BME280_pressure;Samples;Min_cycle;Max_cycle;Signal;HPM_P1;HPM_P2
2023/10/16 00:01:09;;;;;;;13.25;2.08;;;;;;;-145.67;100.00;66521.78;5084232;28;20128;-91
2023/10/16 00:03:38;;;;;;;8.18;1.65;;;;;;;-145.67;100.00;66521.78;5086187;28;20016;-91
2023/10/16 00:06:11;;;;;;;11.35;2.38;;;;;;;-145.67;100.00;66521.78;5085097;28;20105;-89
2023/10/16 00:08:48;;;;;;;18.45;2.35;;;;;;;-145.67;100.00;66521.78;5079042;28;20111;-89
2023/10/16 00:11:18;;;;;;;11.60;1.80;;;;;;;-145.67;100.00;66521.78;5078731;28;20414;-89
2023/10/16 00:13:47;;;;;;;13.25;2.00;;;;;;;-145.67;100.00;66521.78;5078440;28;20461;-91
2023/10/16 00:16:15;;;;;;;13.20;2.00;;;;;;;-145.67;100.00;66521.78;5062246;28;20429;-92
2023/10/16 00:18:41;;;;;;;13.63;1.95;;;;;;;-145.67;100.00;66521.78;5061581;28;20397;-88
2023/10/16 00:21:17;;;;;;;13.50;1.70;;;;;;;-145.67;100.00;66521.78;5061384;28;20027;-89
2023/10/16 00:23:46;;;;;;;8.77;1.70;;;;;;;-145.67;100.00;66521.78;5058357;28;20028;-90
2023/10/16 00:26:14;;;;;;;7.97;1.30;;;;;;;-145.67;100.00;66521.78;5075120;28;20111;-90
2023/10/16 00:28:44;;;;;;;12.13;1.85;;;;;;;-145.67;100.00;66521.78;5074076;28;20021;-90
2023/10/16 00:31:12;;;;;;;11.73;2.10;;;;;;;-145.67;100.00;66521.78;5057978;28;20048;-90
2023/10/16 00:33:40;;;;;;;9.77;1.58;;;;;;;-145.67;100.00;66521.78;5060187;28;20115;-90
2023/10/16 00:36:06;;;;;;;11.73;2.05;;;;;;;-145.67;100.00;66521.78;5090521;28;20032;-90
2023/10/16 00:38:37;;;;;;;14.40;1.58;;;;;;;-145.67;100.00;66521.78;5110804;28;20020;-92
2023/10/16 00:41:16;;;;;;;10.05;1.30;;;;;;;-145.67;100.00;66521.78;5067904;28;20044;-92
2023/10/16 00:43:43;;;;;;;12.27;1.58;;;;;;;-145.67;100.00;66521.78;5076035;28;20071;-91
2023/10/16 00:46:09;;;;;;;20.77;2.20;;;;;;;-145.67;100.00;66521.78;5093761;28;20541;-91
2023/10/16 00:48:39;;;;;;;10.77;2.10;;;;;;;-145.67;100.00;66521.78;5077256;28;20063;-90
2023/10/16 00:51:10;;;;;;;10.23;2.85;;;;;;;-145.67;100.00;66521.78;5044384;28;20032;-91
2023/10/16 00:53:40;;;;;;;8.30;2.50;;;;;;;-145.67;100.00;66521.78;5077953;28;20087;-91
2023/10/16 00:56:08;;;;;;;10.85;2.70;;;;;;;-145.67;100.00;66521.78;5061577;28;20024;-90
2023/10/16 00:58:37;;;;;;;13.23;3.08;;;;;;;-145.67;100.00;66521.78;5085979;28;20028;-90
2023/10/16 01:01:05;;;;;;;9.18;3.17;;;;;;;-145.67;100.00;66521.78;5060627;28;20048;-91
2023/10/16 01:03:33;;;;;;;8.07;2.97;;;;;;;-145.67;100.00;66521.78;5063860;28;20057;-90
2023/10/16 01:05:59;;;;;;;9.38;3.17;;;;;;;-145.67;100.00;66521.78;5081467;28;20042;-91
2023/10/16 01:08:27;;;;;;;12.75;3.65;;;;;;;-145.67;100.00;66521.78;5078913;28;20044;-91
2023/10/16 01:10:57;;;;;;;10.88;3.42;;;;;;;-145.67;100.00;66521.78;5077681;28;20047;-91
2023/10/16 01:13:26;;;;;;;11.48;3.40;;;;;;;-145.67;100.00;66521.78;5077387;28;20054;-91
2023/10/16 01:15:53;;;;;;;11.43;3.97;;;;;;;-145.67;100.00;66521.78;5060842;28;20020;-90
2023/10/16 01:18:18;;;;;;;14.25;4.95;;;;;;;-145.67;100.00;66521.78;5060418;28;20031;-89
2023/10/16 01:20:48;;;;;;;19.48;6.93;;;;;;;-145.67;100.00;66521.78;5060358;28;20028;-90
2023/10/16 01:23:21;;;;;;;19.65;6.25;;;;;;;-145.67;100.00;66521.78;5060340;28;20119;-90
2023/10/16 01:25:48;;;;;;;19.75;5.10;;;;;;;-145.67;100.00;66521.78;5076350;28;20071;-90
2023/10/16 01:28:18;;;;;;;14.10;4.13;;;;;;;-145.67;100.00;66521.78;5059578;28;20085;-91
2023/10/16 01:30:45;;;;;;;9.10;1.60;;;;;;;-145.67;100.00;66521.78;5067955;28;20024;-89
2023/10/16 01:33:12;;;;;;;14.88;2.15;;;;;;;-145.67;100.00;66521.78;5063717;28;20054;-89
2023/10/16 01:35:38;;;;;;;10.55;2.95;;;;;;;-145.67;100.00;66521.78;5075245;28;20080;-89
2023/10/16 01:38:15;;;;;;;9.48;2.83;;;;;;;-145.67;100.00;66521.78;5092580;28;20054;-90
2023/10/16 01:41:13;;;;;;;7.07;2.80;;;;;;;-145.67;100.00;66521.78;5051957;28;20019;-89
2023/10/16 01:43:40;;;;;;;12.57;4.22;;;;;;;-145.67;100.00;66521.78;5075236;28;20032;-90
2023/10/16 01:46:10;;;;;;;9.52;3.30;;;;;;;-145.67;100.00;66521.78;5074986;28;20024;-90
2023/10/16 01:48:39;;;;;;;8.73;3.03;;;;;;;-145.67;100.00;66521.78;5060241;28;20111;-90
2023/10/16 01:51:11;;;;;;;7.78;3.08;;;;;;;-145.67;100.00;66521.78;5060601;28;20092;-91
2023/10/16 01:53:39;;;;;;;10.05;3.45;;;;;;;-145.67;100.00;66521.78;5076604;28;20032;-91
2023/10/16 01:56:14;;;;;;;9.68;3.38;;;;;;;-145.67;100.00;66521.78;5077655;28;20047;-90
2023/10/16 01:58:46;;;;;;;8.73;3.05;;;;;;;-145.67;100.00;66521.78;5060545;28;20058;-90
2023/10/16 02:01:13;;;;;;;;;;;;;;;-145.67;100.00;66521.78;5076572;28;20118;-90
2023/10/16 02:03:45;;;;;;;7.93;3.40;;;;;;;-145.67;100.00;66521.78;5059142;28;19915;-90
2023/10/16 02:06:12;;;;;;;12.02;4.72;;;;;;;-145.67;100.00;66521.78;5076254;28;20447;-90
2023/10/16 02:08:38;;;;;;;14.38;5.30;;;;;;;-145.67;100.00;66521.78;5076405;28;20478;-90
2023/10/16 02:11:04;;;;;;;16.67;5.57;;;;;;;-145.67;100.00;66521.78;5075705;28;20064;-90
2023/10/16 02:13:35;;;;;;;17.23;6.38;;;;;;;-145.67;100.00;66521.78;5059394;28;20098;-90
2023/10/16 02:16:02;;;;;;;14.57;4.97;;;;;;;-145.67;100.00;66521.78;5060288;28;20032;-89
2023/10/16 02:18:36;;;;;;;10.77;4.47;;;;;;;-145.67;100.00;66521.78;5059479;28;20032;-91
2023/10/16 02:21:05;;;;;;;7.65;3.17;;;;;;;-145.67;100.00;66521.78;5077303;28;20039;-89
2023/10/16 02:23:31;;;;;;;11.55;2.72;;;;;;;-145.67;100.00;66521.78;5078366;28;20127;-90
2023/10/16 02:26:00;;;;;;;8.60;2.90;;;;;;;-145.67;100.00;66521.78;5080902;28;20103;-91
2023/10/16 02:28:26;;;;;;;7.65;2.92;;;;;;;-145.67;100.00;66521.78;5098501;28;20032;-90
2023/10/16 02:30:51;;;;;;;10.40;2.53;;;;;;;-145.67;100.00;66521.78;5098751;28;20031;-90
2023/10/16 02:33:26;;;;;;;7.47;2.33;;;;;;;-145.67;100.00;66521.78;5063422;28;20085;-90
2023/10/16 02:35:53;;;;;;;10.10;2.20;;;;;;;-145.67;100.00;66521.78;5065241;28;20039;-90
2023/10/16 02:38:29;;;;;;;14.18;2.10;;;;;;;-145.67;100.00;66521.78;5081168;28;20035;-90
2023/10/16 02:41:03;;;;;;;24.88;2.05;;;;;;;-145.67;100.00;66521.78;5082563;28;20032;-90
2023/10/16 02:43:29;;;;;;;15.27;2.05;;;;;;;-145.67;100.00;66521.78;5083169;28;20035;-90
2023/10/16 02:45:56;;;;;;;11.70;2.55;;;;;;;-145.67;100.00;66521.78;5083910;28;20039;-90
2023/10/16 02:48:23;;;;;;;9.68;2.05;;;;;;;-145.67;100.00;66521.78;5083404;28;20042;-90
2023/10/16 02:50:50;;;;;;;6.78;1.50;;;;;;;-145.67;100.00;66521.78;5088109;28;20032;-89
2023/10/16 02:53:17;;;;;;;9.43;2.05;;;;;;;-145.67;100.00;66521.78;5091250;28;20028;-90
2023/10/16 02:55:44;;;;;;;6.57;2.00;;;;;;;-145.67;100.00;66521.78;5072813;28;20035;-90
2023/10/16 02:58:11;;;;;;;9.15;2.40;;;;;;;-145.67;100.00;66521.78;5091740;28;20062;-90
2023/10/16 03:00:43;;;;;;;6.10;2.08;;;;;;;-145.67;100.00;66521.78;5073446;28;20028;-89
2023/10/16 03:03:09;;;;;;;10.75;2.75;;;;;;;-145.67;100.00;66521.78;5109298;28;20020;-88
2023/10/16 03:05:35;;;;;;;11.90;3.20;;;;;;;-145.67;100.00;66521.78;5108627;28;20024;-89
2023/10/16 03:08:01;;;;;;;13.15;3.30;;;;;;;-145.67;100.00;66521.78;5090151;28;20032;-89
2023/10/16 03:10:26;;;;;;;12.65;3.38;;;;;;;-145.67;100.00;66521.78;5108575;28;20107;-90
2023/10/16 03:12:56;;;;;;;10.63;3.55;;;;;;;-145.67;100.00;66521.78;5066620;28;20509;-90
2023/10/16 03:15:29;;;;;;;13.95;4.07;;;;;;;-145.67;100.00;66521.78;5079324;28;20161;-89
2023/10/16 03:17:55;;;;;;;9.57;3.85;;;;;;;-145.67;100.00;66521.78;5083102;28;20024;-90
2023/10/16 03:20:28;;;;;;;11.15;3.80;;;;;;;-145.67;100.00;66521.78;5068488;28;20035;-89
2023/10/16 03:22:54;;;;;;;10.85;3.72;;;;;;;-145.67;100.00;66521.78;5086802;28;20059;-90
2023/10/16 03:28:18;;;;;;;11.27;3.25;;;;;;;-145.67;100.00;66521.78;5068067;28;20058;-89
2023/10/16 03:30:44;;;;;;;10.48;3.50;;;;;;;-145.67;100.00;66521.78;5067608;28;20026;-89
2023/10/16 03:33:14;;;;;;;7.75;3.22;;;;;;;-145.67;100.00;66521.78;5086756;28;20048;-89
2023/10/16 03:35:45;;;;;;;10.95;3.30;;;;;;;-145.67;100.00;66521.78;5087144;28;20085;-89
2023/10/16 03:38:11;;;;;;;9.20;3.50;;;;;;;-145.67;100.00;66521.78;5082766;28;20095;-89
2023/10/16 03:40:38;;;;;;;9.75;2.20;;;;;;;-145.67;100.00;66521.78;5082268;28;20016;-89
2023/10/16 03:43:03;;;;;;;6.15;2.05;;;;;;;-145.67;100.00;66521.78;5097906;28;20047;-88
2023/10/16 03:45:29;;;;;;;7.65;2.45;;;;;;;-145.67;100.00;66521.78;5096471;28;20028;-90
2023/10/16 03:47:57;;;;;;;8.65;2.97;;;;;;;-145.67;100.00;66521.78;5078869;28;20478;-88
2023/10/16 03:50:34;;;;;;;9.65;3.25;;;;;;;-145.67;100.00;66521.78;5078128;28;20023;-89
2023/10/16 03:53:00;;;;;;;11.80;3.40;;;;;;;-145.67;100.00;66521.78;5078980;28;20100;-88
2023/10/16 03:55:27;;;;;;;9.50;3.60;;;;;;;-145.67;100.00;66521.78;5077910;28;20113;-89
2023/10/16 03:57:52;;;;;;;8.88;3.58;;;;;;;-145.67;100.00;66521.78;5095943;28;20028;-89
2023/10/16 04:00:24;;;;;;;11.38;3.30;;;;;;;-145.67;100.00;66521.78;5077810;28;20489;-89
2023/10/16 04:02:50;;;;;;;;;;;;;;;-145.67;100.00;66521.78;5079200;28;20024;-89
2023/10/16 04:05:33;;;;;;;9.43;3.20;;;;;;;-145.67;100.00;66521.78;5095881;28;19908;-89
2023/10/16 04:08:43;;;;;;;9.23;3.70;;;;;;;-145.67;100.00;66521.78;5068941;28;20028;-88
2023/10/16 04:17:18;;;;;;;12.80;5.70;;;;;;;-145.67;100.00;66521.78;5108323;28;20087;-89
2023/10/16 04:19:53;;;;;;;12.50;5.55;;;;;;;-145.67;100.00;66521.78;5101388;28;20036;-89
2023/10/16 04:22:23;;;;;;;17.23;6.72;;;;;;;-145.67;100.00;66521.78;5085907;28;20032;-89
2023/10/16 04:24:54;;;;;;;18.15;6.57;;;;;;;-145.67;100.00;66521.78;5110058;28;20078;-89
2023/10/16 04:29:46;;;;;;;13.93;5.60;;;;;;;-145.67;100.00;66521.78;5098715;28;20415;-89
2023/10/16 04:35:03;;;;;;;11.50;4.38;;;;;;;-145.67;100.00;66521.78;5122507;28;20016;-88
2023/10/16 04:37:29;;;;;;;11.02;3.95;;;;;;;-145.67;100.00;66521.78;5083318;28;20035;-88
2023/10/16 04:45:24;;;;;;;12.25;4.60;;;;;;;-145.67;100.00;66521.78;5048933;28;20129;-89
2023/10/16 04:53:11;;;;;;;10.07;4.70;;;;;;;-145.67;100.00;66521.78;5078371;28;20079;-90
2023/10/16 05:03:44;;;;;;;11.77;4.80;;;;;;;-145.67;100.00;66521.78;5077463;28;20607;-90
2023/10/16 05:16:47;;;;;;;7.78;3.08;;;;;;;-145.67;100.00;66521.78;5078398;28;20051;-90
2023/10/16 06:16:32;;;;;;;15.70;7.57;;;;;;;-145.67;100.00;66521.78;5078590;28;20032;-91
2023/10/16 06:18:59;;;;;;;15.20;6.03;;;;;;;-145.67;100.00;66521.78;5094693;28;20043;-90
2023/10/16 06:21:25;;;;;;;15.65;6.55;;;;;;;-145.67;100.00;66521.78;5076973;28;20028;-90
2023/10/16 06:23:51;;;;;;;18.20;7.85;;;;;;;-145.67;100.00;66521.78;5058916;28;20426;-91
2023/10/16 06:26:18;;;;;;;20.05;9.48;;;;;;;-145.67;100.00;66521.78;5076159;28;20035;-90
2023/10/16 06:28:51;;;;;;;22.65;10.73;;;;;;;-145.67;100.00;66521.78;5075731;28;20050;-91
2023/10/16 06:31:23;;;;;;;21.40;9.40;;;;;;;-145.67;100.00;66521.78;5076648;28;20477;-90
2023/10/16 06:33:56;;;;;;;20.38;9.05;;;;;;;-145.67;100.00;66521.78;5057662;28;20036;-91
2023/10/16 06:36:23;;;;;;;14.90;6.90;;;;;;;-145.67;100.00;66521.78;5066616;28;20083;-91
2023/10/16 06:38:53;;;;;;;13.20;6.57;;;;;;;-145.67;100.00;66521.78;5059869;28;20099;-91
2023/10/16 06:41:22;;;;;;;11.50;5.20;;;;;;;-145.67;100.00;66521.78;5076088;28;20099;-91
2023/10/16 06:43:51;;;;;;;15.13;6.45;;;;;;;-145.67;100.00;66521.78;5076302;28;20445;-90
2023/10/16 06:46:22;;;;;;;13.30;5.22;;;;;;;-145.67;100.00;66521.78;5076211;28;20024;-90
2023/10/16 06:48:51;;;;;;;15.63;5.70;;;;;;;-145.67;100.00;66521.78;5077018;28;20028;-90
2023/10/16 06:51:17;;;;;;;15.25;5.53;;;;;;;-145.67;100.00;66521.78;5093635;28;20028;-90
2023/10/16 06:53:44;;;;;;;10.45;5.20;;;;;;;-145.67;100.00;66521.78;5076007;28;20035;-91
2023/10/16 06:56:14;;;;;;;9.13;4.60;;;;;;;-145.67;100.00;66521.78;5059409;28;20020;-89
2023/10/16 06:58:40;;;;;;;10.05;4.80;;;;;;;-145.67;100.00;66521.78;5075390;28;20098;-89
2023/10/16 07:01:06;;;;;;;14.48;5.22;;;;;;;-145.67;100.00;66521.78;5099412;28;20071;-91
2023/10/16 07:03:36;;;;;;;12.27;5.15;;;;;;;-145.67;100.00;66521.78;5082449;28;20028;-89
2023/10/16 07:06:05;;;;;;;;;;;;;;;-145.67;100.00;66521.78;5060512;28;20024;-91
2023/10/16 07:08:33;;;;;;;10.52;6.07;;;;;;;-145.67;100.00;66521.78;5076158;28;19908;-90
2023/10/16 07:11:03;;;;;;;19.75;10.65;;;;;;;-145.67;100.00;66521.78;5063028;28;20035;-92
2023/10/16 07:13:31;;;;;;;19.95;11.63;;;;;;;-145.67;100.00;66521.78;5080622;28;20035;-90
2023/10/16 07:15:59;;;;;;;16.88;10.70;;;;;;;-145.67;100.00;66521.78;5063134;28;20056;-92
2023/10/16 07:18:26;;;;;;;17.80;10.60;;;;;;;-145.67;100.00;66521.78;5079129;28;20081;-91
2023/10/16 07:23:24;;;;;;;15.05;7.50;;;;;;;-145.67;100.00;66521.78;5075544;28;20402;-90
2023/10/16 07:25:57;;;;;;;6.88;3.05;;;;;;;-145.67;100.00;66521.78;5042710;28;20697;-91
2023/10/16 07:28:25;;;;;;;7.95;2.25;;;;;;;-145.67;100.00;66521.78;5060284;28;20042;-92
2023/10/16 07:30:51;;;;;;;6.68;2.63;;;;;;;-145.67;100.00;66521.78;5059382;28;20111;-91
2023/10/16 07:33:20;;;;;;;7.68;2.30;;;;;;;-145.67;100.00;66521.78;5075486;28;20120;-90
2023/10/16 07:35:47;;;;;;;7.88;2.20;;;;;;;-145.67;100.00;66521.78;5058630;28;20083;-91
2023/10/16 07:38:23;;;;;;;8.02;2.15;;;;;;;-145.67;100.00;66521.78;5058736;28;20536;-90
2023/10/16 07:40:51;;;;;;;8.95;3.45;;;;;;;-145.67;100.00;66521.78;5075232;28;20121;-91
2023/10/16 07:43:27;;;;;;;15.30;4.55;;;;;;;-145.67;100.00;66521.78;5058804;28;20043;-91
2023/10/16 07:46:16;;;;;;;13.10;6.80;;;;;;;-145.67;100.00;66521.78;5075627;28;20115;-89
2023/10/16 07:48:52;;;;;;;19.30;8.73;;;;;;;-145.67;100.00;66521.78;5076586;28;20058;-90
2023/10/16 07:51:20;;;;;;;17.23;7.25;;;;;;;-145.67;100.00;66521.78;5058655;28;20458;-91
2023/10/16 07:53:48;;;;;;;15.93;4.50;;;;;;;-145.67;100.00;66521.78;5059341;28;20087;-90
2023/10/16 07:58:54;;;;;;;19.30;3.92;;;;;;;-145.67;100.00;66521.78;5075440;28;20102;-89
2023/10/16 08:01:36;;;;;;;12.65;4.20;;;;;;;-145.67;100.00;66521.78;5075173;28;20020;-89
2023/10/16 08:04:06;;;;;;;18.25;4.28;;;;;;;-145.67;100.00;66521.78;5068777;28;20043;-89
2023/10/16 08:06:39;;;;;;;17.05;3.72;;;;;;;-145.67;100.00;66521.78;5096412;28;20059;-91
2023/10/16 08:11:59;;;;;;;9.25;2.70;;;;;;;-145.67;100.00;66521.78;5080895;28;20023;-91
2023/10/16 08:14:26;;;;;;;10.05;2.70;;;;;;;-145.67;100.00;66521.78;5079072;28;20040;-90
2023/10/16 08:17:04;;;;;;;11.48;2.75;;;;;;;-145.67;100.00;66521.78;5078329;28;20074;-90
2023/10/16 08:19:36;;;;;;;14.55;2.55;;;;;;;-145.67;100.00;66521.78;5080373;28;20054;-90
2023/10/16 08:22:07;;;;;;;11.10;3.40;;;;;;;-145.67;100.00;66521.78;5061993;28;20076;-89
2023/10/16 08:24:34;;;;;;;14.43;3.30;;;;;;;-145.67;100.00;66521.78;5079088;28;20047;-89
2023/10/16 08:29:54;;;;;;;15.15;3.83;;;;;;;-145.67;100.00;66521.78;5080249;28;20042;-90
2023/10/16 08:35:42;;;;;;;13.68;3.42;;;;;;;-145.67;100.00;66521.78;5081520;28;20043;-89
2023/10/16 08:38:20;;;;;;;15.90;3.13;;;;;;;-145.67;100.00;66521.78;5094453;28;20098;-88
2023/10/16 08:40:57;;;;;;;20.42;4.57;;;;;;;-145.67;100.00;66521.78;5095798;28;20016;-90
2023/10/16 08:43:39;;;;;;;16.40;4.72;;;;;;;-145.67;100.00;66521.78;5085195;28;20023;-90
2023/10/16 08:46:18;;;;;;;20.23;4.38;;;;;;;-145.67;100.00;66521.78;5079644;28;20036;-91
2023/10/16 08:48:48;;;;;;;17.50;4.50;;;;;;;-145.67;100.00;66521.78;5063458;28;20032;-88
2023/10/16 08:51:16;;;;;;;20.13;3.72;;;;;;;-145.67;100.00;66521.78;5060864;28;20024;-90
2023/10/16 08:53:45;;;;;;;15.50;3.22;;;;;;;-145.67;100.00;66521.78;5051234;28;20047;-91
2023/10/16 08:56:12;;;;;;;18.77;3.97;;;;;;;-145.67;100.00;66521.78;5057804;28;20032;-90
2023/10/16 08:58:40;;;;;;;13.32;4.03;;;;;;;-145.67;100.00;66521.78;5041250;28;20056;-90
2023/10/16 09:01:07;;;;;;;13.48;3.65;;;;;;;-145.67;100.00;66521.78;5060429;28;20115;-90
2023/10/16 09:03:44;;;;;;;14.30;3.13;;;;;;;-145.67;100.00;66521.78;5060555;28;20039;-88
2023/10/16 09:06:13;;;;;;;12.98;3.38;;;;;;;-145.67;100.00;66521.78;5077267;28;20073;-89
2023/10/16 09:08:41;;;;;;;15.88;3.45;;;;;;;-145.67;100.00;66521.78;5076775;28;20059;-88
2023/10/16 09:11:07;;;;;;;14.93;2.90;;;;;;;-145.67;100.00;66521.78;5094584;28;20016;-88
2023/10/16 09:13:36;;;;;;;14.52;3.53;;;;;;;-145.67;100.00;66521.78;5076749;28;20031;-89
2023/10/16 09:16:03;;;;;;;22.70;3.78;;;;;;;-145.67;100.00;66521.78;5076708;28;20024;-89
2023/10/16 09:18:31;;;;;;;25.10;3.80;;;;;;;-145.67;100.00;66521.78;5076355;28;20042;-89
2023/10/16 09:21:00;;;;;;;21.88;3.70;;;;;;;-145.67;100.00;66521.78;5060241;28;20454;-88
2023/10/16 09:23:36;;;;;;;21.95;4.53;;;;;;;-145.67;100.00;66521.78;5061376;28;20039;-89
2023/10/16 09:26:02;;;;;;;17.27;3.65;;;;;;;-145.67;100.00;66521.78;5061021;28;20046;-89
2023/10/16 09:28:32;;;;;;;20.52;3.90;;;;;;;-145.67;100.00;66521.78;5061192;28;20084;-90
2023/10/16 09:31:01;;;;;;;16.52;3.42;;;;;;;-145.67;100.00;66521.78;5076438;28;20020;-90
2023/10/16 09:33:27;;;;;;;12.30;3.08;;;;;;;-145.67;100.00;66521.78;5077115;28;20030;-90
2023/10/16 09:36:00;;;;;;;15.10;3.20;;;;;;;-145.67;100.00;66521.78;5077366;28;20073;-91
2023/10/16 09:38:32;;;;;;;16.17;3.10;;;;;;;-145.67;100.00;66521.78;5067147;28;20027;-90
2023/10/16 09:43:56;;;;;;;12.15;2.55;;;;;;;-145.67;100.00;66521.78;5054929;28;20059;-88
2023/10/16 09:49:13;;;;;;;13.43;2.60;;;;;;;-145.67;100.00;66521.78;5081346;28;20117;-88
2023/10/16 09:51:44;;;;;;;;;;;;;;;-145.67;100.00;66521.78;5076851;28;20035;-88
2023/10/16 09:54:11;;;;;;;8.75;2.88;;;;;;;-145.67;100.00;66521.78;5094200;28;19974;-88
2023/10/16 09:56:38;;;;;;;13.90;3.20;;;;;;;-145.67;100.00;66521.78;5059751;28;20032;-90
2023/10/16 09:59:26;;;;;;;10.25;3.15;;;;;;;-145.67;100.00;66521.78;5076484;28;20115;-91
2023/10/16 10:01:55;;;;;;;11.52;3.22;;;;;;;-145.67;100.00;66521.78;5059657;28;20065;-90
2023/10/16 10:04:24;;;;;;;13.95;3.00;;;;;;;-145.67;100.00;66521.78;5075962;28;20046;-90
2023/10/16 10:06:57;;;;;;;8.32;2.80;;;;;;;-145.67;100.00;66521.78;5076189;28;20150;-89
2023/10/16 10:09:41;;;;;;;23.35;3.42;;;;;;;-145.67;100.00;66521.78;5076255;28;20024;-89
2023/10/16 10:12:42;;;;;;;18.60;3.28;;;;;;;-145.67;100.00;66521.78;5078357;28;20531;-91
2023/10/16 10:15:26;;;;;;;15.80;3.60;;;;;;;-145.67;100.00;66521.78;5035636;28;20390;-89
2023/10/16 10:17:54;;;;;;;12.25;2.88;;;;;;;-145.67;100.00;66521.78;5075904;28;20027;-90
2023/10/16 10:20:26;;;;;;;11.65;2.42;;;;;;;-145.67;100.00;66521.78;5070329;28;20024;-89
2023/10/16 10:26:25;;;;;;;12.02;2.22;;;;;;;-145.67;100.00;66521.78;5073595;28;20031;-89
2023/10/16 10:29:16;;;;;;;7.63;1.90;;;;;;;-145.67;100.00;66521.78;5073709;28;20029;-89
2023/10/16 10:31:48;;;;;;;7.72;2.25;;;;;;;-145.67;100.00;66521.78;5044461;28;20036;-88
2023/10/16 10:34:18;;;;;;;9.20;2.03;;;;;;;-145.67;100.00;66521.78;5076839;28;20028;-89
2023/10/16 10:36:44;;;;;;;9.90;1.80;;;;;;;-145.67;100.00;66521.78;5076190;28;20060;-89
2023/10/16 10:39:23;;;;;;;11.60;1.90;;;;;;;-145.67;100.00;66521.78;5096222;28;20039;-89
2023/10/16 10:41:54;;;;;;;9.60;2.13;;;;;;;-145.67;100.00;66521.78;5062978;28;20028;-89
2023/10/16 10:44:33;;;;;;;7.38;1.77;;;;;;;-145.67;100.00;66521.78;5091712;28;20107;-88
2023/10/16 10:47:04;;;;;;;9.15;1.52;;;;;;;-145.67;100.00;66521.78;5068553;28;20032;-90
2023/10/16 10:49:33;;;;;;;7.73;1.50;;;;;;;-145.67;100.00;66521.78;5080608;28;20024;-89
2023/10/16 10:52:01;;;;;;;6.07;1.67;;;;;;;-145.67;100.00;66521.78;5079631;28;20369;-90
2023/10/16 10:54:26;;;;;;;9.02;1.63;;;;;;;-145.67;100.00;66521.78;5079866;28;20024;-90
2023/10/16 10:56:53;;;;;;;8.02;1.65;;;;;;;-145.67;100.00;66521.78;5098567;28;20020;-89
2023/10/16 10:59:39;;;;;;;7.45;1.65;;;;;;;-145.67;100.00;66521.78;5078661;28;20051;-89
2023/10/16 11:04:53;;;;;;;9.68;1.70;;;;;;;-145.67;100.00;66521.78;5097423;28;20117;-89
2023/10/16 11:07:25;;;;;;;7.03;1.38;;;;;;;-145.67;100.00;66521.78;5079668;28;20016;-89
2023/10/16 11:09:59;;;;;;;6.00;1.30;;;;;;;-145.67;100.00;66521.78;5079805;28;20097;-89
2023/10/16 11:12:25;;;;;;;6.00;1.30;;;;;;;-145.67;100.00;66521.78;5062598;28;20414;-89
2023/10/16 11:14:51;;;;;;;6.78;1.13;;;;;;;-145.67;100.00;66521.78;5079409;28;20120;-91
2023/10/16 11:17:33;;;;;;;9.50;1.55;;;;;;;-145.67;100.00;66521.78;5078949;28;20024;-90
2023/10/16 11:20:11;;;;;;;5.90;1.45;;;;;;;-145.67;100.00;66521.78;5062668;28;20079;-88
2023/10/16 11:22:43;;;;;;;8.65;1.45;;;;;;;-145.67;100.00;66521.78;5063613;28;20028;-90
2023/10/16 11:25:12;;;;;;;6.18;1.27;;;;;;;-145.67;100.00;66521.78;5063357;28;20043;-89
2023/10/16 11:27:41;;;;;;;10.45;1.50;;;;;;;-145.67;100.00;66521.78;5078749;28;20032;-88
2023/10/16 11:30:12;;;;;;;7.60;1.60;;;;;;;-145.67;100.00;66521.78;5078415;28;20039;-91
2023/10/16 11:32:45;;;;;;;7.93;1.40;;;;;;;-145.67;100.00;66521.78;5061886;28;20028;-90
2023/10/16 11:35:18;;;;;;;6.13;1.30;;;;;;;-145.67;100.00;66521.78;5062776;28;20067;-90
2023/10/16 11:37:50;;;;;;;7.38;1.38;;;;;;;-145.67;100.00;66521.78;5079735;28;20107;-90
2023/10/16 11:40:33;;;;;;;7.05;1.45;;;;;;;-145.67;100.00;66521.78;5079520;28;20031;-89
2023/10/16 11:43:02;;;;;;;6.80;1.35;;;;;;;-145.67;100.00;66521.78;5080174;28;20036;-91
2023/10/16 11:45:32;;;;;;;7.53;1.17;;;;;;;-145.67;100.00;66521.78;5078616;28;20020;-89
2023/10/16 11:50:57;;;;;;;8.50;1.63;;;;;;;-145.67;100.00;66521.78;5074428;28;20030;-90
2023/10/16 11:53:23;;;;;;;4.35;1.13;;;;;;;-145.67;100.00;66521.78;5078058;28;20028;-90
2023/10/16 11:55:56;;;;;;;5.10;1.45;;;;;;;-145.67;100.00;66521.78;5095951;28;20085;-89
2023/10/16 11:58:22;;;;;;;5.90;1.42;;;;;;;-145.67;100.00;66521.78;5078300;28;20024;-88
2023/10/16 12:00:57;;;;;;;6.03;1.50;;;;;;;-145.67;100.00;66521.78;5061953;28;20451;-90
2023/10/16 12:03:32;;;;;;;8.68;1.65;;;;;;;-145.67;100.00;66521.78;5064668;28;20103;-91
2023/10/16 12:05:59;;;;;;;8.65;1.48;;;;;;;-145.67;100.00;66521.78;5077986;28;20046;-91
2023/10/16 12:08:25;;;;;;;6.90;1.52;;;;;;;-145.67;100.00;66521.78;5077971;28;20031;-91
2023/10/16 12:10:50;;;;;;;8.98;2.00;;;;;;;-145.67;100.00;66521.78;5077854;28;20031;-91
2023/10/16 12:13:16;;;;;;;9.55;1.50;;;;;;;-145.67;100.00;66521.78;5078072;28;20433;-91
2023/10/16 12:15:46;;;;;;;6.25;1.30;;;;;;;-145.67;100.00;66521.78;5079078;28;20020;-91
2023/10/16 12:18:13;;;;;;;6.40;1.08;;;;;;;-145.67;100.00;66521.78;5063016;28;20544;-91
2023/10/16 12:20:41;;;;;;;5.55;1.40;;;;;;;-145.67;100.00;66521.78;5061616;28;20083;-90
2023/10/16 12:23:07;;;;;;;6.30;1.30;;;;;;;-145.67;100.00;66521.78;5077263;28;20434;-90
2023/10/16 12:25:36;;;;;;;6.40;1.35;;;;;;;-145.67;100.00;66521.78;5078109;28;20024;-90
2023/10/16 12:28:02;;;;;;;8.35;1.33;;;;;;;-145.67;100.00;66521.78;5079145;28;20032;-92
2023/10/16 12:30:28;;;;;;;9.43;1.30;;;;;;;-145.67;100.00;66521.78;5077782;28;20040;-92
2023/10/16 12:32:54;;;;;;;6.50;1.45;;;;;;;-145.67;100.00;66521.78;5061090;28;20035;-90
2023/10/16 12:35:22;;;;;;;5.53;1.67;;;;;;;-145.67;100.00;66521.78;5078572;28;20020;-91
2023/10/16 12:37:49;;;;;;;5.72;1.52;;;;;;;-145.67;100.00;66521.78;5077700;28;20526;-91
2023/10/16 12:43:02;;;;;;;6.85;1.55;;;;;;;-145.67;100.00;66521.78;5081869;28;20031;-91
2023/10/16 12:45:28;;;;;;;6.55;1.60;;;;;;;-145.67;100.00;66521.78;5078610;28;20450;-89
2023/10/16 12:47:54;;;;;;;5.63;1.27;;;;;;;-145.67;100.00;66521.78;5062146;28;20430;-90
2023/10/16 12:50:24;;;;;;;9.82;1.55;;;;;;;-145.67;100.00;66521.78;5077366;28;20670;-91
2023/10/16 12:52:51;;;;;;;7.22;1.73;;;;;;;-145.67;100.00;66521.78;5078531;28;20069;-91
2023/10/16 12:55:18;;;;;;;13.43;4.15;;;;;;;-145.67;100.00;66521.78;5061017;28;20026;-90
2023/10/16 12:57:44;;;;;;;6.13;1.70;;;;;;;-145.67;100.00;66521.78;5077621;28;20097;-90
2023/10/16 13:00:20;;;;;;;6.93;1.52;;;;;;;-145.67;100.00;66521.78;5061168;28;20020;-90
2023/10/16 13:02:50;;;;;;;4.70;1.33;;;;;;;-145.67;100.00;66521.78;5095609;28;20484;-90
2023/10/16 13:05:17;;;;;;;5.70;1.25;;;;;;;-145.67;100.00;66521.78;5060177;28;20077;-89
2023/10/16 13:07:43;;;;;;;8.05;1.40;;;;;;;-145.67;100.00;66521.78;5059840;28;20016;-90
2023/10/16 13:10:14;;;;;;;8.02;1.40;;;;;;;-145.67;100.00;66521.78;5095203;28;20622;-91
2023/10/16 13:12:41;;;;;;;6.60;1.23;;;;;;;-145.67;100.00;66521.78;5061022;28;20028;-91
2023/10/16 13:15:09;;;;;;;7.55;1.40;;;;;;;-145.67;100.00;66521.78;5096885;28;20075;-91
2023/10/16 13:17:37;;;;;;;6.90;1.52;;;;;;;-145.67;100.00;66521.78;5095944;28;20028;-91
2023/10/16 13:20:15;;;;;;;5.38;1.30;;;;;;;-145.67;100.00;66521.78;5084229;28;20024;-91
2023/10/16 14:26:22;;;;;;;25.55;10.65;;;;;;;-145.67;100.00;66521.78;5309126;22;19928;-92
2023/10/16 14:28:54;;;;;;;23.77;10.20;;;;;;;-145.67;100.00;66521.78;5019825;28;20051;-91
2023/10/16 14:31:24;;;;;;;7.10;2.80;;;;;;;-145.67;100.00;66521.78;5020345;28;20040;-91
2023/10/16 14:33:49;;;;;;;8.85;2.22;;;;;;;-145.67;100.00;66521.78;5015083;28;20029;-89
2023/10/16 14:36:17;;;;;;;5.93;1.42;;;;;;;-145.67;100.00;66521.78;5003216;28;20040;-91